Hauptseite
METAR-TAF:

METAR-TAF

Flughäfen :

Flughafen Tozeur-Nefta

Tozeur, Tunesien

Breite: 33-55N, Länge: 008-06E, Höhe: 87 m

Beobachtung

Neuester Wetterbericht von vor 39 Minuten, um 13:00 UTC
Wind 5 kt aus unterschiedlichen Richtungen
Temperatur 36°C
Luftfeuchtigkeit 25%
Luftdruck 1016 hPa
Sichtweite 10 km oder mehr
Aufgelockert bewölkt in der Höhe von 4000 ft

METAR: DTTZ 191300Z VRB05KT 9999 SCT040 36/13 Q1016 NOSIG

Zeit: 14:39 (13:39 UTC)

Prognose

Neuester Wetterbericht von vor 2 Stunden und 39 Minuten, um 11:00 UTC
Gültige Prognose vom 19 um 12 UTC bis 20 um 12 UTC
Wind 15 kt aus Ost
Sichtweite 10 km oder mehr
Aufgelockert bewölkt in der Höhe von 3000 ft
Übergehend zu
vom 19 um 12 UTC bis 19 um 14 UTC
Wind 3 kt aus Süd/Südwest
Übergehend zu
vom 20 um 04 UTC bis 20 um 06 UTC
Wind 12 kt aus Ost/Nordost

TAF: DTTZ 191100Z 1912/2012 09015KT 9999 SCT030 BECMG 1912/1914 21003KT BECMG 2004/2006 06012KT

Wetterbeobachtungen und Prognosen von mehr als 4000 Flughäfen (METAR und TAF Bericht).

Die verfügbaren Stationen werden durch gelbe und rote Markierungen auf der Karte dargestellt.

Führen Sie die Maus auf sie, um den Namen der Station zu sehen.

Darauf klicken, um die Beobachtung von Wetterbeobachtungen und Prognosen zu sehen.

Um die Karte zu ändern : klicken Sie auf den grünen Tasten mit einem schwarzen Kreuz Zum Vergrößern, auf den grünen Button mit einem Gedankenstrich zu verkleinern, oder auf die grünen Pfeile für benachbarte Karten.


METAR-TAF: